Sign-in with your pilot id or email, or register

ICAO: LOWW Name / Country: Flughafen Wien-Schwechat / Austria
Latitude: 48.1221 Longitude: 16.5575
Total Arrivals:
Strict Standards: Non-static method AirportData::getarrflights() should not be called statically, assuming $this from incompatible context in /var/www/customers/vh-7192/web/home/phpvms/core/templates/airport_info.tpl on line 18
9
Total Departures:
Strict Standards: Non-static method AirportData::getdeptflights() should not be called statically, assuming $this from incompatible context in /var/www/customers/vh-7192/web/home/phpvms/core/templates/airport_info.tpl on line 21
11
Latest Arrival: MTA804 (LHBP-LOWW) Tibor Berces Latest Departure: MTA805 (LOWW-LHBP) Tibor Berces
Metar: LOWW 151720Z 21015KT 9999 -SHRA FEW028 FEW050CB 22/12 Q1012 BECMG 27012KT
More info

Charts for LOWW


NOTAM


Warning: file_get_contents(http://api.vateud.net/notams/LOWW.json): failed to open stream: Redirection limit reached, aborting in /var/www/customers/vh-7192/web/home/phpvms/core/common/NOTAMSData.class.php on line 18

Warning: Invalid argument supplied for foreach() in /var/www/customers/vh-7192/web/home/phpvms/core/common/NOTAMSData.class.php on line 22

Flughafen Wien-Schwechat